Time;durP1;ratioP1;P1;durP2;ratioP2;P2;SDS_P1;SDS_P2;PMS_P1;PMS_P2;Temp;Humidity;BMP_temperature;BMP_pressure;BME280_temperature;BME280_humidity;BME280_pressure;Samples;Min_cycle;Max_cycle;Signal;HPM_P1;HPM_P2
2023/11/19 00:00:26;;;;;;;28.95;10.75;;;6.40;99.90;;;;;;5030844;28;20438;-73
2023/11/19 00:02:51;;;;;;;26.98;11.57;;;6.40;99.90;;;;;;5030168;28;20028;-74
2023/11/19 00:05:17;;;;;;;33.15;12.15;;;6.50;99.90;;;;;;5031838;28;20022;-77
2023/11/19 00:07:43;;;;;;;29.92;11.25;;;6.50;99.90;;;;;;5035101;28;20033;-76
2023/11/19 00:10:13;;;;;;;31.40;12.00;;;6.50;99.90;;;;;;5030676;28;20047;-73
2023/11/19 00:12:42;;;;;;;37.63;12.32;;;6.60;99.90;;;;;;5031071;28;20707;-74
2023/11/19 00:15:14;;;;;;;36.30;12.35;;;6.60;99.90;;;;;;5028776;28;20021;-70
2023/11/19 00:17:44;;;;;;;31.42;12.80;;;6.60;99.90;;;;;;5029484;28;20076;-77
2023/11/19 00:20:11;;;;;;;25.40;11.30;;;6.70;99.90;;;;;;5029934;28;20457;-72
2023/11/19 00:22:37;;;;;;;33.28;13.80;;;6.70;99.90;;;;;;5029390;28;20028;-73
2023/11/19 00:25:03;;;;;;;39.92;14.13;;;6.70;99.90;;;;;;5030094;28;20025;-74
2023/11/19 00:27:30;;;;;;;34.42;12.30;;;6.70;99.90;;;;;;5030102;28;20024;-71
2023/11/19 00:29:56;;;;;;;39.35;13.45;;;6.70;99.90;;;;;;5031774;28;20025;-77
2023/11/19 00:32:22;;;;;;;35.38;13.45;;;6.80;99.90;;;;;;5031200;28;20747;-77
2023/11/19 00:34:48;;;;;;;40.78;12.63;;;6.80;99.90;;;;;;5035551;28;20025;-72
2023/11/19 00:37:15;;;;;;;43.25;14.85;;;6.80;99.90;;;;;;5029901;28;20049;-76
2023/11/19 00:39:41;;;;;;;33.80;12.23;;;6.80;99.90;;;;;;5030123;28;20026;-75
2023/11/19 00:42:07;;;;;;;45.65;14.73;;;6.80;99.90;;;;;;5031496;28;20025;-74
2023/11/19 00:44:33;;;;;;;43.05;13.80;;;6.80;99.90;;;;;;5030015;28;20156;-75
2023/11/19 00:47:00;;;;;;;46.47;14.32;;;6.80;99.90;;;;;;5044413;28;20453;-75
2023/11/19 00:49:26;;;;;;;55.33;15.50;;;6.90;99.90;;;;;;5029377;28;20033;-73
2023/11/19 00:51:51;;;;;;;43.40;14.18;;;6.80;99.90;;;;;;5029199;28;20056;-76
2023/11/19 00:54:17;;;;;;;57.72;16.52;;;6.80;99.90;;;;;;5030775;28;20030;-77
2023/11/19 00:56:43;;;;;;;57.97;17.40;;;6.80;99.90;;;;;;5029775;28;20263;-73
2023/11/19 00:59:08;;;;;;;56.28;16.45;;;6.90;99.90;;;;;;5027738;28;20036;-73
2023/11/19 01:01:34;;;;;;;61.47;16.95;;;6.90;99.90;;;;;;5035715;28;20577;-77
2023/11/19 01:04:00;;;;;;;53.78;16.05;;;6.90;99.90;;;;;;5030270;28;20029;-73
2023/11/19 01:06:32;;;;;;;60.22;18.45;;;6.90;99.90;;;;;;5029079;28;20042;-77
2023/11/19 01:08:58;;;;;;;64.95;18.83;;;6.90;99.90;;;;;;5028809;28;20112;-77
2023/11/19 01:11:25;;;;;;;84.20;20.70;;;6.90;99.90;;;;;;5030434;28;20113;-76
2023/11/19 01:13:51;;;;;;;79.13;20.23;;;7.00;99.90;;;;;;5046051;28;20045;-76
2023/11/19 01:16:17;;;;;;;77.45;19.40;;;7.00;99.90;;;;;;5034595;28;20053;-75
2023/11/19 01:18:46;;;;;;;60.60;18.05;;;7.00;99.90;;;;;;5029591;28;20046;-72
2023/11/19 01:21:12;;;;;;;58.03;18.48;;;7.10;99.90;;;;;;5028288;28;20041;-70
2023/11/19 01:23:37;;;;;;;80.05;20.58;;;7.00;99.90;;;;;;5029333;28;20025;-73
2023/11/19 01:26:05;;;;;;;80.35;21.05;;;7.10;99.90;;;;;;5028321;28;20078;-76
2023/11/19 01:28:31;;;;;;;79.20;20.80;;;7.10;99.90;;;;;;5030094;28;20025;-75
2023/11/19 01:30:57;;;;;;;63.88;18.75;;;7.10;99.90;;;;;;5028836;28;20402;-74
2023/11/19 01:33:22;;;;;;;92.40;22.83;;;7.10;99.90;;;;;;5035131;28;20025;-71
2023/11/19 01:35:48;;;;;;;97.78;22.23;;;7.10;99.90;;;;;;5030212;28;20033;-79
2023/11/19 01:38:14;;;;;;;97.57;23.17;;;7.10;99.90;;;;;;5029295;28;20034;-79
2023/11/19 01:40:40;;;;;;;85.43;21.33;;;7.20;99.90;;;;;;5029401;28;20041;-77
2023/11/19 01:43:05;;;;;;;82.53;22.00;;;7.20;99.90;;;;;;5029395;28;20022;-79
2023/11/19 01:45:32;;;;;;;94.75;23.08;;;7.20;99.90;;;;;;5029855;28;20029;-77
2023/11/19 01:48:00;;;;;;;89.50;22.15;;;7.20;99.90;;;;;;5028859;28;20029;-77
2023/11/19 01:50:27;;;;;;;91.65;22.75;;;7.30;99.90;;;;;;5030054;28;20058;-75
2023/11/19 01:52:54;;;;;;;89.40;23.52;;;7.30;99.90;;;;;;5030063;28;20632;-77
2023/11/19 01:55:20;;;;;;;84.82;23.85;;;7.30;99.90;;;;;;5028982;28;20061;-79
2023/11/19 01:57:47;;;;;;;88.13;22.88;;;7.30;99.90;;;;;;5034872;28;20040;-76
2023/11/19 02:00:14;;;;;;;81.53;22.50;;;7.30;99.90;;;;;;5028658;28;20037;-74
2023/11/19 02:02:40;;;;;;;107.88;24.73;;;7.40;99.90;;;;;;5030350;28;20074;-75
2023/11/19 02:05:06;;;;;;;125.50;26.30;;;7.40;99.90;;;;;;5029326;28;20030;-75
2023/11/19 02:07:32;;;;;;;94.72;23.60;;;7.40;99.90;;;;;;5029766;28;20098;-75
2023/11/19 02:10:05;;;;;;;112.80;25.50;;;7.50;99.90;;;;;;5032608;28;20025;-78
2023/11/19 02:12:33;;;;;;;101.28;23.92;;;7.50;99.90;;;;;;5031062;28;20040;-77
2023/11/19 02:14:59;;;;;;;105.75;24.38;;;7.50;99.90;;;;;;5033596;28;20029;-77
2023/11/19 02:17:34;;;;;;;110.55;25.65;;;7.60;99.90;;;;;;5031601;28;20219;-75
2023/11/19 02:19:59;;;;;;;;;;;7.60;99.90;;;;;;5033762;28;20034;-80
2023/11/19 02:22:25;;;;;;;114.65;24.15;;;7.60;99.90;;;;;;5047261;28;19955;-78
2023/11/19 02:25:00;;;;;;;104.82;24.25;;;7.70;99.90;;;;;;5032284;28;20051;-78
2023/11/19 02:27:55;;;;;;;113.03;25.23;;;7.80;99.90;;;;;;5033186;28;20903;-76
2023/11/19 02:30:21;;;;;;;;;;;7.70;99.90;;;;;;5033252;28;20033;-80
2023/11/19 02:32:47;;;;;;;121.13;25.20;;;7.80;99.90;;;;;;5031734;28;19918;-76
2023/11/19 02:35:13;;;;;;;127.10;26.17;;;7.80;99.90;;;;;;5034523;28;20593;-75
2023/11/19 02:37:39;;;;;;;132.63;26.52;;;7.90;99.90;;;;;;5031381;28;20037;-75
2023/11/19 02:40:08;;;;;;;149.77;29.65;;;7.90;99.90;;;;;;5031805;28;20049;-76
2023/11/19 02:42:33;;;;;;;153.05;30.00;;;8.00;99.90;;;;;;5031816;28;20025;-80
2023/11/19 02:44:59;;;;;;;164.15;30.13;;;8.00;99.90;;;;;;5031536;28;20038;-74
2023/11/19 02:47:25;;;;;;;141.80;28.92;;;8.00;99.90;;;;;;5032989;28;20022;-77
2023/11/19 02:49:51;;;;;;;151.20;29.60;;;8.10;99.90;;;;;;5033963;28;20314;-76
2023/11/19 02:52:16;;;;;;;148.68;29.63;;;8.10;99.90;;;;;;5032676;28;20032;-78
2023/11/19 02:54:43;;;;;;;136.93;29.83;;;8.20;99.90;;;;;;5033264;28;20030;-76
2023/11/19 02:57:10;;;;;;;139.98;28.80;;;8.40;99.90;;;;;;5032972;28;20064;-74
2023/11/19 02:59:39;;;;;;;123.45;28.75;;;8.40;99.90;;;;;;5033480;28;20383;-74
2023/11/19 03:02:11;;;;;;;135.82;31.42;;;8.50;99.90;;;;;;5032323;28;20041;-76
2023/11/19 03:04:43;;;;;;;122.15;30.55;;;8.70;99.90;;;;;;5048178;28;20026;-73
2023/11/19 03:07:09;;;;;;;120.50;29.95;;;9.00;99.90;;;;;;5032946;28;20088;-73
2023/11/19 03:09:35;;;;;;;127.47;30.95;;;9.10;99.90;;;;;;5032748;28;20030;-75
2023/11/19 03:12:01;;;;;;;127.13;30.50;;;9.30;99.90;;;;;;5032900;28;20029;-75
2023/11/19 03:14:27;;;;;;;136.45;32.13;;;9.40;99.90;;;;;;5039501;28;20100;-74
2023/11/19 03:16:53;;;;;;;143.80;33.28;;;9.50;99.90;;;;;;5039333;28;20501;-76
2023/11/19 03:19:19;;;;;;;124.10;32.05;;;9.60;99.90;;;;;;5032392;28;20046;-78
2023/11/19 03:21:44;;;;;;;113.70;28.98;;;9.70;99.90;;;;;;5039059;28;20069;-76
2023/11/19 03:24:12;;;;;;;146.13;31.63;;;9.70;99.90;;;;;;5037060;28;20082;-77
2023/11/19 03:26:38;;;;;;;121.18;30.35;;;9.80;99.90;;;;;;5038453;28;20040;-76
2023/11/19 03:29:04;;;;;;;141.88;30.92;;;9.80;99.90;;;;;;5032606;28;20021;-74
2023/11/19 03:31:29;;;;;;;123.78;30.95;;;9.90;99.90;;;;;;5032606;28;20033;-76
2023/11/19 03:33:55;;;;;;;132.38;33.00;;;9.90;99.90;;;;;;5032077;28;20045;-78
2023/11/19 03:36:20;;;;;;;118.40;29.67;;;10.00;99.90;;;;;;5030386;28;20033;-76
2023/11/19 03:38:46;;;;;;;141.25;32.58;;;10.00;99.90;;;;;;5030178;28;20041;-75
2023/11/19 03:41:13;;;;;;;109.93;28.58;;;10.00;99.90;;;;;;5031098;28;20030;-73
2023/11/19 03:43:39;;;;;;;111.22;28.25;;;10.00;99.90;;;;;;5030663;28;20030;-76
2023/11/19 03:46:14;;;;;;;118.72;32.15;;;10.10;99.90;;;;;;5031836;28;20048;-74
2023/11/19 03:48:40;;;;;;;134.20;33.05;;;10.10;99.90;;;;;;5035993;28;20029;-73
2023/11/19 03:51:06;;;;;;;128.98;32.95;;;10.10;99.90;;;;;;5033084;28;20060;-75
2023/11/19 03:53:31;;;;;;;126.30;30.85;;;10.20;99.90;;;;;;5031518;28;20049;-78
2023/11/19 03:55:57;;;;;;;119.00;30.10;;;10.20;99.90;;;;;;5031353;28;20117;-74
2023/11/19 03:58:23;;;;;;;112.97;30.25;;;10.20;99.90;;;;;;5031313;28;20044;-75
2023/11/19 04:00:48;;;;;;;124.70;31.63;;;10.20;99.90;;;;;;5032230;28;20018;-77
2023/11/19 04:03:14;;;;;;;136.63;30.73;;;10.20;99.90;;;;;;5031187;28;20045;-75
2023/11/19 04:05:39;;;;;;;111.97;29.60;;;10.20;99.90;;;;;;5031211;28;20367;-71
2023/11/19 04:08:05;;;;;;;135.75;33.35;;;10.20;99.90;;;;;;5029358;28;20030;-74
2023/11/19 04:10:31;;;;;;;123.57;31.85;;;10.30;99.90;;;;;;5030454;28;20029;-77
2023/11/19 04:12:56;;;;;;;114.28;27.58;;;10.30;99.90;;;;;;5031341;28;20030;-76
2023/11/19 04:15:22;;;;;;;116.60;28.13;;;10.30;99.90;;;;;;5030493;28;20048;-78
2023/11/19 04:17:48;;;;;;;116.85;29.50;;;10.30;99.90;;;;;;5031220;28;20101;-76
2023/11/19 04:20:14;;;;;;;111.90;27.88;;;10.30;99.90;;;;;;5031595;28;20497;-73
2023/11/19 04:22:40;;;;;;;124.35;30.50;;;10.40;99.90;;;;;;5030830;28;20053;-76
2023/11/19 04:25:06;;;;;;;102.85;28.42;;;10.40;99.90;;;;;;5031573;28;20106;-75
2023/11/19 04:27:32;;;;;;;103.68;26.33;;;10.40;99.90;;;;;;5046643;28;20045;-76
2023/11/19 04:29:58;;;;;;;113.20;28.35;;;10.40;99.90;;;;;;5030034;28;20025;-75
2023/11/19 04:32:25;;;;;;;109.30;28.38;;;10.40;99.90;;;;;;5030601;28;20033;-76
2023/11/19 04:34:51;;;;;;;104.13;26.90;;;10.40;99.90;;;;;;5035881;28;20442;-76
2023/11/19 04:37:16;;;;;;;112.60;28.00;;;10.40;99.90;;;;;;5035824;28;20088;-78
2023/11/19 04:39:44;;;;;;;101.25;25.00;;;10.50;99.90;;;;;;5035939;28;20029;-74
2023/11/19 04:42:10;;;;;;;100.45;26.75;;;10.50;99.90;;;;;;5030359;28;20022;-74
2023/11/19 04:44:35;;;;;;;102.85;25.77;;;10.50;99.90;;;;;;5030112;28;20021;-79
2023/11/19 04:47:01;;;;;;;102.50;25.05;;;10.50;99.90;;;;;;5031111;28;20359;-76
2023/11/19 04:49:27;;;;;;;101.47;24.73;;;10.60;99.90;;;;;;5030776;28;20077;-76
2023/11/19 04:51:53;;;;;;;93.80;25.40;;;10.60;99.90;;;;;;5036152;28;20075;-76
2023/11/19 04:54:19;;;;;;;107.15;25.58;;;10.60;99.90;;;;;;5029813;28;20048;-75
2023/11/19 04:56:48;;;;;;;93.32;25.17;;;10.50;99.90;;;;;;5035636;28;20038;-79
2023/11/19 04:59:14;;;;;;;97.80;24.67;;;10.60;99.90;;;;;;5030148;28;20030;-76
2023/11/19 05:01:40;;;;;;;107.93;24.92;;;10.70;99.90;;;;;;5029530;28;20036;-78
2023/11/19 05:04:07;;;;;;;87.20;22.88;;;10.70;99.90;;;;;;5035975;28;20030;-74
2023/11/19 05:06:33;;;;;;;86.07;22.55;;;10.70;99.90;;;;;;5028517;28;20125;-74
2023/11/19 05:09:04;;;;;;;89.90;23.52;;;10.70;99.90;;;;;;5030441;28;20092;-74
2023/11/19 05:11:30;;;;;;;89.05;23.27;;;10.70;99.90;;;;;;5030383;28;20029;-75
2023/11/19 05:13:55;;;;;;;90.20;23.08;;;10.80;99.90;;;;;;5030128;28;20030;-75
2023/11/19 05:16:21;;;;;;;82.85;20.17;;;10.70;99.90;;;;;;5029816;28;20050;-75
2023/11/19 05:18:47;;;;;;;85.03;21.00;;;10.80;99.90;;;;;;5030562;28;20042;-74
2023/11/19 05:21:13;;;;;;;90.97;20.73;;;10.80;99.90;;;;;;5034914;28;20034;-76
2023/11/19 05:23:39;;;;;;;81.25;18.98;;;10.80;99.90;;;;;;5031083;28;20029;-78
2023/11/19 05:26:05;;;;;;;97.13;21.95;;;10.90;99.90;;;;;;5029611;28;20093;-75
2023/11/19 05:28:30;;;;;;;84.15;20.30;;;10.90;99.90;;;;;;5030410;28;20018;-75
2023/11/19 05:30:56;;;;;;;78.03;19.60;;;10.90;99.90;;;;;;5029994;28;20353;-74
2023/11/19 05:33:22;;;;;;;62.50;19.17;;;10.90;99.90;;;;;;5030005;28;20025;-73
2023/11/19 05:35:47;;;;;;;81.75;20.65;;;11.00;99.90;;;;;;5030165;28;20033;-76
2023/11/19 05:38:14;;;;;;;71.43;20.02;;;11.00;99.90;;;;;;5030352;28;20045;-75
2023/11/19 05:40:40;;;;;;;84.85;19.38;;;11.00;99.90;;;;;;5030078;28;20057;-76
2023/11/19 05:43:06;;;;;;;80.30;19.73;;;10.90;99.90;;;;;;5031389;28;20038;-74
2023/11/19 05:45:32;;;;;;;93.28;19.35;;;11.00;99.90;;;;;;5034140;28;20090;-77
2023/11/19 05:47:58;;;;;;;65.38;18.98;;;11.00;99.90;;;;;;5039633;28;20025;-75
2023/11/19 05:50:24;;;;;;;75.82;17.58;;;11.00;99.90;;;;;;5034821;28;20117;-79
2023/11/19 05:52:50;;;;;;;72.22;17.60;;;11.10;99.90;;;;;;5034780;28;20462;-73
2023/11/19 05:55:15;;;;;;;70.10;16.13;;;11.00;99.90;;;;;;5032864;28;20026;-74
2023/11/19 05:57:41;;;;;;;68.57;15.98;;;11.10;99.90;;;;;;5032280;28;20064;-76
2023/11/19 06:00:08;;;;;;;68.40;16.25;;;11.00;99.90;;;;;;5032337;28;20052;-74
2023/11/19 06:02:34;;;;;;;79.53;15.65;;;11.10;99.90;;;;;;5033283;28;20037;-76
2023/11/19 06:05:01;;;;;;;58.33;13.63;;;11.10;99.90;;;;;;5032430;28;20024;-77
2023/11/19 06:07:27;;;;;;;53.80;13.00;;;11.10;99.90;;;;;;5033548;28;20434;-77
2023/11/19 06:09:53;;;;;;;68.57;14.10;;;11.10;99.90;;;;;;5033863;28;20025;-76
2023/11/19 06:12:19;;;;;;;75.70;13.80;;;11.00;99.90;;;;;;5033389;28;20029;-76
2023/11/19 06:14:44;;;;;;;74.55;13.65;;;11.10;99.90;;;;;;5034975;28;20066;-71
2023/11/19 06:17:11;;;;;;;76.03;13.00;;;11.10;99.90;;;;;;5033350;28;20050;-74
2023/11/19 06:19:37;;;;;;;60.20;13.15;;;11.10;99.90;;;;;;5033912;28;20072;-73
2023/11/19 06:22:03;;;;;;;60.78;12.60;;;11.00;99.90;;;;;;5032241;28;20432;-76
2023/11/19 06:24:29;;;;;;;55.40;12.18;;;11.10;99.90;;;;;;5031568;28;20044;-73
2023/11/19 06:26:55;;;;;;;61.08;11.82;;;11.10;99.90;;;;;;5036243;28;20034;-73
2023/11/19 06:29:21;;;;;;;64.22;10.98;;;11.00;99.90;;;;;;5031889;28;20037;-74
2023/11/19 06:31:49;;;;;;;61.67;11.35;;;11.10;99.90;;;;;;5033226;28;20056;-72
2023/11/19 06:34:15;;;;;;;65.30;10.60;;;11.10;99.90;;;;;;5031583;28;20410;-75
2023/11/19 06:36:43;;;;;;;61.20;10.02;;;11.10;99.90;;;;;;5031372;28;20033;-74
2023/11/19 06:39:09;;;;;;;60.42;9.65;;;11.10;99.90;;;;;;5032565;28;20033;-75
2023/11/19 06:41:34;;;;;;;64.55;9.68;;;11.10;99.90;;;;;;5033630;28;20025;-72
2023/11/19 06:44:00;;;;;;;52.53;9.05;;;11.00;99.90;;;;;;5032738;28;20493;-76
2023/11/19 06:46:26;;;;;;;47.00;8.60;;;11.00;99.90;;;;;;5033553;28;20033;-76
2023/11/19 06:48:51;;;;;;;49.50;8.77;;;11.00;99.90;;;;;;5028483;28;20040;-74
2023/11/19 06:51:17;;;;;;;64.50;9.02;;;11.10;99.90;;;;;;5032428;28;20089;-77
2023/11/19 06:53:44;;;;;;;61.92;9.65;;;11.00;99.90;;;;;;5039290;28;20022;-76
2023/11/19 06:56:23;;;;;;;50.80;7.53;;;11.00;99.90;;;;;;5031785;28;20033;-75
2023/11/19 06:58:49;;;;;;;62.92;8.60;;;11.00;99.90;;;;;;5032625;28;20874;-78
2023/11/19 07:01:16;;;;;;;55.88;8.50;;;11.00;99.90;;;;;;5032492;28;20022;-77
2023/11/19 07:03:41;;;;;;;55.80;8.57;;;11.00;99.90;;;;;;5032754;28;20030;-78
2023/11/19 07:06:08;;;;;;;52.17;7.97;;;11.10;99.90;;;;;;5032738;28;20077;-75
2023/11/19 07:08:34;;;;;;;71.00;9.32;;;11.10;99.90;;;;;;5031962;28;20727;-73
2023/11/19 07:11:00;;;;;;;49.10;8.48;;;11.00;99.90;;;;;;5028588;28;20114;-77
2023/11/19 07:13:27;;;;;;;60.78;9.00;;;11.00;99.90;;;;;;5032148;28;20041;-76
2023/11/19 07:15:55;;;;;;;66.55;8.68;;;11.00;99.90;;;;;;5029110;28;20136;-74
2023/11/19 07:18:24;;;;;;;57.47;7.88;;;11.10;99.90;;;;;;5031161;28;20136;-78
2023/11/19 07:20:49;;;;;;;65.53;8.07;;;11.10;99.90;;;;;;5030321;28;20033;-76
2023/11/19 07:23:16;;;;;;;72.68;8.95;;;11.10;99.90;;;;;;5038047;28;20036;-76
2023/11/19 07:25:44;;;;;;;59.85;8.35;;;11.10;99.90;;;;;;5032611;28;20033;-71
2023/11/19 07:28:10;;;;;;;64.13;8.45;;;11.10;99.90;;;;;;5032623;28;20018;-75
2023/11/19 07:30:36;;;;;;;59.65;8.00;;;11.10;99.90;;;;;;5031259;28;20033;-76
2023/11/19 07:33:03;;;;;;;58.13;8.45;;;11.10;99.90;;;;;;5032072;28;20045;-74
2023/11/19 07:35:30;;;;;;;54.08;7.80;;;11.10;99.90;;;;;;5030068;28;20040;-73
2023/11/19 07:37:59;;;;;;;47.00;6.50;;;11.10;99.90;;;;;;5030108;28;20030;-75
2023/11/19 07:40:25;;;;;;;49.10;7.63;;;11.10;99.90;;;;;;5031577;28;20034;-71
2023/11/19 07:42:51;;;;;;;55.47;8.32;;;11.10;99.90;;;;;;5029446;28;20025;-72
2023/11/19 07:45:17;;;;;;;49.40;7.90;;;11.10;99.90;;;;;;5031513;28;20037;-76
2023/11/19 07:47:46;;;;;;;56.83;7.53;;;11.10;99.90;;;;;;5031406;28;20038;-73
2023/11/19 07:50:14;;;;;;;56.05;7.35;;;11.20;99.90;;;;;;5030949;28;20038;-74
2023/11/19 07:52:39;;;;;;;55.45;7.88;;;11.20;99.90;;;;;;5032281;28;20026;-75
2023/11/19 07:55:05;;;;;;;50.22;7.65;;;11.20;99.90;;;;;;5038335;28;20033;-76
2023/11/19 07:57:31;;;;;;;57.50;8.50;;;11.20;99.90;;;;;;5038259;28;20498;-75
2023/11/19 08:00:01;;;;;;;52.22;7.03;;;11.30;99.90;;;;;;5031669;28;20077;-75
2023/11/19 08:02:27;;;;;;;39.40;6.35;;;11.30;99.90;;;;;;5028099;28;20116;-70
2023/11/19 08:04:54;;;;;;;58.97;7.72;;;11.30;99.90;;;;;;5030388;28;20064;-79
2023/11/19 08:07:21;;;;;;;45.45;7.15;;;11.30;99.90;;;;;;5030105;28;20026;-73
2023/11/19 08:09:47;;;;;;;47.17;6.78;;;11.40;99.90;;;;;;5031267;28;20034;-76
2023/11/19 08:12:14;;;;;;;42.15;6.40;;;11.50;99.90;;;;;;5031189;28;20027;-75
2023/11/19 08:14:40;;;;;;;46.42;7.10;;;11.60;99.90;;;;;;5029676;28;20883;-74
2023/11/19 08:17:05;;;;;;;59.33;7.85;;;11.70;99.90;;;;;;5030423;28;20051;-75
2023/11/19 08:19:31;;;;;;;54.40;6.63;;;11.70;99.90;;;;;;5030108;28;20041;-74
2023/11/19 08:21:56;;;;;;;49.80;6.57;;;11.70;99.90;;;;;;5031678;28;20033;-74
2023/11/19 08:24:22;;;;;;;47.65;6.82;;;11.80;99.90;;;;;;5031346;28;20044;-78
2023/11/19 08:26:48;;;;;;;40.00;6.43;;;11.90;99.90;;;;;;5035822;28;20033;-73
2023/11/19 08:29:14;;;;;;;41.38;5.88;;;11.90;99.90;;;;;;5030197;28;20038;-77
2023/11/19 08:31:39;;;;;;;51.30;6.95;;;11.90;99.90;;;;;;5029855;28;20032;-73
2023/11/19 08:34:08;;;;;;;43.90;5.82;;;11.90;99.90;;;;;;5030002;28;20089;-74
2023/11/19 08:36:34;;;;;;;61.22;7.28;;;11.80;99.90;;;;;;5034183;28;20037;-75
2023/11/19 08:39:01;;;;;;;55.20;7.07;;;11.90;99.90;;;;;;5028795;28;20084;-77
2023/11/19 08:41:27;;;;;;;57.00;7.55;;;11.90;99.90;;;;;;5024656;28;20072;-75
2023/11/19 08:43:53;;;;;;;41.97;7.35;;;11.90;99.90;;;;;;5022663;28;20539;-75
2023/11/19 08:46:19;;;;;;;46.58;8.18;;;11.90;99.90;;;;;;5026063;28;20029;-74
2023/11/19 08:48:45;;;;;;;37.42;6.15;;;12.00;99.90;;;;;;5025598;28;20025;-76
2023/11/19 08:51:12;;;;;;;41.50;6.57;;;12.20;99.90;;;;;;5029245;28;20018;-74
2023/11/19 08:53:37;;;;;;;63.38;7.57;;;12.30;99.90;;;;;;5024239;28;20044;-75
2023/11/19 08:56:04;;;;;;;44.45;6.50;;;12.40;99.90;;;;;;5027219;28;20088;-75
2023/11/19 08:58:30;;;;;;;44.58;7.55;;;12.40;99.90;;;;;;5029070;28;20128;-74
2023/11/19 09:00:56;;;;;;;44.28;6.78;;;12.40;99.90;;;;;;5029082;28;20418;-75
2023/11/19 09:03:22;;;;;;;52.67;7.15;;;12.40;99.90;;;;;;5028347;28;20042;-75
2023/11/19 09:05:47;;;;;;;49.40;6.93;;;12.40;99.90;;;;;;5029546;28;20038;-74
2023/11/19 09:08:13;;;;;;;39.58;5.97;;;12.30;99.90;;;;;;5030448;28;20021;-75
2023/11/19 09:10:38;;;;;;;44.58;5.70;;;12.40;99.90;;;;;;5030898;28;20060;-70
2023/11/19 09:13:04;;;;;;;43.67;5.65;;;12.40;99.90;;;;;;5028864;28;20429;-71
2023/11/19 09:15:30;;;;;;;52.03;7.20;;;12.40;99.90;;;;;;5028340;28;20068;-72
2023/11/19 09:17:56;;;;;;;46.67;6.78;;;12.40;99.90;;;;;;5031179;28;20041;-74
2023/11/19 09:20:21;;;;;;;46.17;6.35;;;12.40;99.90;;;;;;5034622;28;20085;-73
2023/11/19 09:22:47;;;;;;;61.30;6.45;;;12.40;99.90;;;;;;5034249;28;20046;-75
2023/11/19 09:25:16;;;;;;;53.53;7.82;;;12.40;99.90;;;;;;5034300;28;20034;-73
2023/11/19 09:27:43;;;;;;;55.40;7.60;;;12.30;99.90;;;;;;5034191;28;20022;-78
2023/11/19 09:30:09;;;;;;;44.72;6.07;;;12.20;99.90;;;;;;5034994;28;20053;-72
2023/11/19 09:32:34;;;;;;;51.25;7.07;;;12.20;99.90;;;;;;5031744;28;20037;-75
2023/11/19 09:35:00;;;;;;;44.53;6.88;;;12.10;99.90;;;;;;5036137;28;20029;-77
2023/11/19 09:37:26;;;;;;;53.75;6.68;;;12.00;99.90;;;;;;5032508;28;20091;-75
2023/11/19 09:39:53;;;;;;;43.85;5.82;;;12.00;99.90;;;;;;5033285;28;20147;-77
2023/11/19 09:42:19;;;;;;;43.60;6.35;;;12.00;99.90;;;;;;5038040;28;20383;-73
2023/11/19 09:44:46;;;;;;;44.67;6.88;;;11.90;99.90;;;;;;5034170;28;20033;-74
2023/11/19 09:47:13;;;;;;;53.92;6.68;;;11.90;99.90;;;;;;5034111;28;20029;-76
2023/11/19 09:49:39;;;;;;;54.83;7.20;;;11.80;99.90;;;;;;5035087;28;20037;-73
2023/11/19 09:52:05;;;;;;;45.17;5.72;;;12.00;99.90;;;;;;5032843;28;20025;-76
2023/11/19 09:54:31;;;;;;;45.30;6.43;;;12.00;99.90;;;;;;5039047;28;20478;-77
2023/11/19 09:57:02;;;;;;;51.85;7.03;;;12.00;99.90;;;;;;5034918;28;20029;-77
2023/11/19 09:59:29;;;;;;;47.88;6.15;;;12.00;99.90;;;;;;5040619;28;20382;-76
2023/11/19 10:01:56;;;;;;;48.03;6.25;;;12.00;99.90;;;;;;5038392;28;20511;-73
2023/11/19 10:04:22;;;;;;;39.92;6.07;;;12.00;99.90;;;;;;5032992;28;20386;-75
2023/11/19 10:06:49;;;;;;;46.55;7.00;;;11.90;99.90;;;;;;5033946;28;20025;-74
2023/11/19 10:09:15;;;;;;;52.35;6.32;;;11.90;99.90;;;;;;5026691;28;20090;-75
2023/11/19 10:11:41;;;;;;;39.58;5.80;;;11.90;99.90;;;;;;5033151;28;20038;-74
2023/11/19 10:14:06;;;;;;;46.75;6.63;;;11.90;99.90;;;;;;5033530;28;20036;-74
2023/11/19 10:16:34;;;;;;;41.90;6.25;;;11.90;99.90;;;;;;5032045;28;20052;-75
2023/11/19 10:19:00;;;;;;;56.90;6.50;;;11.90;99.90;;;;;;5032653;28;20068;-75
2023/11/19 10:21:27;;;;;;;50.63;6.75;;;11.90;99.90;;;;;;5034056;28;20018;-75
2023/11/19 10:23:59;;;;;;;47.40;6.55;;;11.90;99.90;;;;;;5034204;28;20497;-74
2023/11/19 10:26:26;;;;;;;43.78;5.63;;;11.90;99.90;;;;;;5033998;28;20057;-70
2023/11/19 10:28:51;;;;;;;35.22;6.65;;;11.90;99.90;;;;;;5030766;28;20685;-74
2023/11/19 10:31:18;;;;;;;40.60;5.65;;;11.90;99.90;;;;;;5032554;28;20099;-74
2023/11/19 10:33:45;;;;;;;35.90;5.88;;;11.90;99.90;;;;;;5038085;28;20029;-74
2023/11/19 10:36:14;;;;;;;50.53;11.00;;;11.90;99.90;;;;;;5032991;28;20018;-73
2023/11/19 10:38:40;;;;;;;41.13;6.95;;;11.90;99.90;;;;;;5033103;28;20061;-72
2023/11/19 10:41:07;;;;;;;49.38;7.35;;;11.90;99.90;;;;;;5031515;28;20052;-75
2023/11/19 10:43:44;;;;;;;34.08;6.70;;;11.90;99.90;;;;;;5033346;28;20045;-74
2023/11/19 10:46:20;;;;;;;38.75;5.07;;;11.90;99.90;;;;;;5033550;28;20021;-74
2023/11/19 10:48:46;;;;;;;42.03;6.13;;;11.90;99.90;;;;;;5032929;28;20024;-74
2023/11/19 10:51:21;;;;;;;36.65;5.28;;;11.90;99.90;;;;;;5033015;28;20022;-75
2023/11/19 10:53:49;;;;;;;28.00;5.03;;;11.90;99.90;;;;;;5033447;28;20033;-73
2023/11/19 10:56:19;;;;;;;38.92;5.28;;;12.00;99.90;;;;;;5033090;28;20077;-74
2023/11/19 10:58:45;;;;;;;42.67;7.13;;;12.10;99.90;;;;;;5032920;28;20053;-72
2023/11/19 11:01:18;;;;;;;37.65;6.55;;;12.10;99.90;;;;;;5033277;28;20025;-74
2023/11/19 11:03:45;;;;;;;43.28;6.70;;;12.10;99.90;;;;;;5032650;28;20113;-73
2023/11/19 11:06:13;;;;;;;39.30;6.00;;;12.10;99.90;;;;;;5032527;28;20083;-73
2023/11/19 11:08:39;;;;;;;35.08;5.22;;;12.10;99.90;;;;;;5033416;28;20076;-73
2023/11/19 11:11:06;;;;;;;42.55;5.90;;;12.10;99.90;;;;;;5032087;28;20031;-75
2023/11/19 11:13:33;;;;;;;46.28;5.93;;;12.10;99.90;;;;;;5032754;28;20021;-72
2023/11/19 11:16:00;;;;;;;45.88;7.45;;;12.20;99.90;;;;;;5032656;28;20505;-72
2023/11/19 11:18:26;;;;;;;43.53;7.45;;;12.20;99.90;;;;;;5031310;28;20052;-73
2023/11/19 11:21:03;;;;;;;46.92;8.45;;;12.10;99.90;;;;;;5033242;28;20030;-70
2023/11/19 11:23:43;;;;;;;54.78;12.98;;;12.10;99.90;;;;;;5033462;28;20029;-73
2023/11/19 11:26:21;;;;;;;52.15;12.43;;;12.20;99.90;;;;;;5032753;28;20030;-73
2023/11/19 11:29:01;;;;;;;44.70;10.50;;;12.20;99.90;;;;;;5030582;28;20185;-72
2023/11/19 11:32:04;;;;;;;47.08;6.47;;;12.30;99.90;;;;;;5030999;28;20040;-74
2023/11/19 11:34:45;;;;;;;37.22;7.25;;;12.30;99.90;;;;;;5029100;28;20037;-73
2023/11/19 11:37:23;;;;;;;47.47;7.30;;;12.30;99.90;;;;;;5028409;28;20026;-73
2023/11/19 11:42:25;;;;;;;44.30;6.78;;;12.50;99.90;;;;;;5076180;28;20453;-72
2023/11/19 11:45:04;;;;;;;35.13;6.30;;;12.60;99.90;;;;;;5076562;28;20465;-70
2023/11/19 11:47:42;;;;;;;38.70;6.07;;;12.50;99.90;;;;;;5077416;28;20025;-70
2023/11/19 11:50:12;;;;;;;38.83;5.75;;;12.50;99.90;;;;;;5077365;28;20584;-74
2023/11/19 11:52:59;;;;;;;42.08;6.13;;;12.40;99.90;;;;;;5077814;28;20058;-72
2023/11/19 11:55:24;;;;;;;49.47;6.65;;;12.40;99.90;;;;;;5077753;28;20037;-73
2023/11/19 11:57:50;;;;;;;44.00;5.97;;;12.40;99.90;;;;;;5078633;28;20028;-72
2023/11/19 12:00:32;;;;;;;47.90;6.10;;;12.30;99.90;;;;;;5078200;28;20497;-73
2023/11/19 12:03:02;;;;;;;44.47;6.75;;;12.20;99.90;;;;;;5077035;28;20013;-73
2023/11/19 12:05:29;;;;;;;47.83;7.10;;;12.20;99.90;;;;;;5077738;28;20020;-71
2023/11/19 12:08:01;;;;;;;44.65;6.57;;;12.20;99.90;;;;;;5077617;28;20051;-72
2023/11/19 12:10:33;;;;;;;38.72;6.32;;;12.30;99.90;;;;;;5078513;28;20686;-77
2023/11/19 12:13:00;;;;;;;45.03;7.60;;;12.30;99.90;;;;;;5077256;28;20385;-71
2023/11/19 12:15:27;;;;;;;46.65;7.88;;;12.20;99.90;;;;;;5076706;28;20047;-72
2023/11/19 12:17:54;;;;;;;52.20;7.30;;;12.20;99.90;;;;;;5078293;28;20508;-72
2023/11/19 12:20:25;;;;;;;46.35;5.95;;;12.20;99.90;;;;;;5077571;28;20504;-71
2023/11/19 12:22:52;;;;;;;37.90;6.18;;;12.20;99.90;;;;;;5075456;28;20686;-71
2023/11/19 12:25:19;;;;;;;53.15;9.82;;;12.10;99.90;;;;;;5078156;28;20016;-72
2023/11/19 12:27:47;;;;;;;43.97;6.95;;;12.10;99.90;;;;;;5073846;28;20048;-76
2023/11/19 12:30:17;;;;;;;51.78;7.03;;;12.00;99.90;;;;;;5076257;28;20135;-71
2023/11/19 12:32:45;;;;;;;46.28;6.15;;;12.00;99.90;;;;;;5076322;28;20084;-72
2023/11/19 12:35:11;;;;;;;36.28;6.28;;;12.00;99.90;;;;;;5073233;28;20025;-71